Union Grove, Illinois
Current Conditions -  °F | °C
As of 12:35 AM on Wednesday 28 Jan 2015 (Local Time) from KSQI Reporting Station
Overcast Overcast  
Wind Chill: 19°   Ceiling: 1900
Heat Index: 19°   Visibility: 7mi
Dew Point: 16°   Wind: 3mph
Humidity: 86%   Direction: 140°SE
Pressure: 30.25"   Gusts: NA
Location:  41.8285°N, 89.9656°W
Report Text: KSQI 280635Z AUTO 14003KT 7SM OVC019 M07/M09 A3025 RMK AO1
Loading
Personal Weather Stations






























Interactive Weather Map New forecast layout! Learn more

10-Day Weather Forecast

Advertisements
Track Severe Weather on mobile